sensor_id;sensor_type;location;lat;lon;timestamp;temperature;humidity
3308;DHT22;1666;48.898;9.182;2023-02-28T00:00:39;-1.30;1.00
3308;DHT22;1666;48.898;9.182;2023-02-28T00:03:09;-1.30;1.00
3308;DHT22;1666;48.898;9.182;2023-02-28T00:05:39;-1.30;1.00
3308;DHT22;1666;48.898;9.182;2023-02-28T00:08:09;-1.30;1.00
3308;DHT22;1666;48.898;9.182;2023-02-28T00:10:42;-1.30;1.00
3308;DHT22;1666;48.898;9.182;2023-02-28T00:13:12;-1.30;1.00
3308;DHT22;1666;48.898;9.182;2023-02-28T00:15:44;-1.30;1.00
3308;DHT22;1666;48.898;9.182;2023-02-28T00:18:15;-1.40;1.00
3308;DHT22;1666;48.898;9.182;2023-02-28T00:20:45;-1.40;1.00
3308;DHT22;1666;48.898;9.182;2023-02-28T00:23:15;-1.40;1.00
3308;DHT22;1666;48.898;9.182;2023-02-28T00:25:45;-1.40;1.00
3308;DHT22;1666;48.898;9.182;2023-02-28T00:28:14;-1.40;1.00
3308;DHT22;1666;48.898;9.182;2023-02-28T00:30:47;-1.40;1.00
3308;DHT22;1666;48.898;9.182;2023-02-28T00:33:17;-1.40;1.00
3308;DHT22;1666;48.898;9.182;2023-02-28T00:35:47;-1.40;1.00
3308;DHT22;1666;48.898;9.182;2023-02-28T00:38:16;-1.40;1.00
3308;DHT22;1666;48.898;9.182;2023-02-28T00:40:46;-1.40;1.00
3308;DHT22;1666;48.898;9.182;2023-02-28T00:43:16;-1.40;1.00
3308;DHT22;1666;48.898;9.182;2023-02-28T00:45:49;-1.40;1.00
3308;DHT22;1666;48.898;9.182;2023-02-28T00:48:18;-1.40;1.00
3308;DHT22;1666;48.898;9.182;2023-02-28T00:50:48;-1.40;1.00
3308;DHT22;1666;48.898;9.182;2023-02-28T00:53:18;-1.50;1.00
3308;DHT22;1666;48.898;9.182;2023-02-28T00:55:49;-1.50;1.00
3308;DHT22;1666;48.898;9.182;2023-02-28T00:58:19;-1.40;1.00
3308;DHT22;1666;48.898;9.182;2023-02-28T01:00:52;-1.50;1.00
3308;DHT22;1666;48.898;9.182;2023-02-28T01:03:23;-1.50;1.00
3308;DHT22;1666;48.898;9.182;2023-02-28T01:05:53;-1.40;1.00
3308;DHT22;1666;48.898;9.182;2023-02-28T01:08:23;-1.50;1.00
3308;DHT22;1666;48.898;9.182;2023-02-28T01:10:53;-1.50;1.00
3308;DHT22;1666;48.898;9.182;2023-02-28T01:13:23;-1.50;1.00
3308;DHT22;1666;48.898;9.182;2023-02-28T01:15:56;-1.50;1.00
3308;DHT22;1666;48.898;9.182;2023-02-28T01:18:26;-1.50;1.00
3308;DHT22;1666;48.898;9.182;2023-02-28T01:20:56;-1.50;1.00
3308;DHT22;1666;48.898;9.182;2023-02-28T01:23:26;-1.50;1.00
3308;DHT22;1666;48.898;9.182;2023-02-28T01:25:56;-1.50;1.00
3308;DHT22;1666;48.898;9.182;2023-02-28T01:28:25;-1.60;1.00
3308;DHT22;1666;48.898;9.182;2023-02-28T01:30:59;-1.50;1.00
3308;DHT22;1666;48.898;9.182;2023-02-28T01:33:29;-1.50;1.00
3308;DHT22;1666;48.898;9.182;2023-02-28T01:35:59;-1.60;1.00
3308;DHT22;1666;48.898;9.182;2023-02-28T01:38:30;-1.60;1.00
3308;DHT22;1666;48.898;9.182;2023-02-28T01:41:00;-1.60;1.00
3308;DHT22;1666;48.898;9.182;2023-02-28T01:43:31;-1.70;1.00
3308;DHT22;1666;48.898;9.182;2023-02-28T01:46:04;-1.60;1.00
3308;DHT22;1666;48.898;9.182;2023-02-28T01:48:38;-1.70;1.00
3308;DHT22;1666;48.898;9.182;2023-02-28T01:51:12;-1.70;1.00
3308;DHT22;1666;48.898;9.182;2023-02-28T01:53:47;-1.70;1.00
3308;DHT22;1666;48.898;9.182;2023-02-28T01:56:21;-1.80;1.00
3308;DHT22;1666;48.898;9.182;2023-02-28T01:58:54;-1.80;1.00
3308;DHT22;1666;48.898;9.182;2023-02-28T02:01:27;-1.80;1.00
3308;DHT22;1666;48.898;9.182;2023-02-28T02:04:00;-1.90;1.00
3308;DHT22;1666;48.898;9.182;2023-02-28T02:06:34;-1.80;1.00
3308;DHT22;1666;48.898;9.182;2023-02-28T02:09:05;-1.80;1.00
3308;DHT22;1666;48.898;9.182;2023-02-28T02:11:36;-1.80;1.00
3308;DHT22;1666;48.898;9.182;2023-02-28T02:14:28;-1.80;1.00
3308;DHT22;1666;48.898;9.182;2023-02-28T02:17:15;-1.90;1.00
3308;DHT22;1666;48.898;9.182;2023-02-28T02:20:28;-1.90;1.00
3308;DHT22;1666;48.898;9.182;2023-02-28T02:23:17;-1.90;1.00
3308;DHT22;1666;48.898;9.182;2023-02-28T02:25:53;-1.90;1.00
3308;DHT22;1666;48.898;9.182;2023-02-28T02:31:30;-1.90;1.00
3308;DHT22;1666;48.898;9.182;2023-02-28T02:34:26;-1.90;1.00
3308;DHT22;1666;48.898;9.182;2023-02-28T02:37:04;-2.00;1.00
3308;DHT22;1666;48.898;9.182;2023-02-28T02:39:44;-2.00;1.00
3308;DHT22;1666;48.898;9.182;2023-02-28T02:42:21;-2.00;1.00
3308;DHT22;1666;48.898;9.182;2023-02-28T02:44:58;-2.00;1.00
3308;DHT22;1666;48.898;9.182;2023-02-28T02:47:31;-1.90;1.00
3308;DHT22;1666;48.898;9.182;2023-02-28T02:50:07;-1.90;1.00
3308;DHT22;1666;48.898;9.182;2023-02-28T02:52:40;-2.00;1.00
3308;DHT22;1666;48.898;9.182;2023-02-28T02:55:13;-1.90;1.00
3308;DHT22;1666;48.898;9.182;2023-02-28T02:57:46;-1.90;1.00
3308;DHT22;1666;48.898;9.182;2023-02-28T03:00:20;-2.00;1.00
3308;DHT22;1666;48.898;9.182;2023-02-28T03:02:54;-2.00;1.00
3308;DHT22;1666;48.898;9.182;2023-02-28T03:05:30;-1.90;1.00
3308;DHT22;1666;48.898;9.182;2023-02-28T03:08:03;-1.90;1.00
3308;DHT22;1666;48.898;9.182;2023-02-28T03:10:37;-1.90;1.00
3308;DHT22;1666;48.898;9.182;2023-02-28T03:13:44;-1.80;1.00
3308;DHT22;1666;48.898;9.182;2023-02-28T03:16:33;-1.80;1.00
3308;DHT22;1666;48.898;9.182;2023-02-28T03:19:25;-1.80;1.00
3308;DHT22;1666;48.898;9.182;2023-02-28T03:22:19;-1.80;1.00
3308;DHT22;1666;48.898;9.182;2023-02-28T03:24:54;-1.80;1.00
3308;DHT22;1666;48.898;9.182;2023-02-28T03:27:28;-1.80;1.00
3308;DHT22;1666;48.898;9.182;2023-02-28T03:30:02;-1.80;1.00
3308;DHT22;1666;48.898;9.182;2023-02-28T03:32:36;-1.70;1.00
3308;DHT22;1666;48.898;9.182;2023-02-28T03:35:11;-1.70;1.00
3308;DHT22;1666;48.898;9.182;2023-02-28T03:37:54;-1.70;1.00
3308;DHT22;1666;48.898;9.182;2023-02-28T03:40:30;-1.70;1.00
3308;DHT22;1666;48.898;9.182;2023-02-28T03:43:02;-1.60;1.00
3308;DHT22;1666;48.898;9.182;2023-02-28T03:45:36;-1.50;1.00
3308;DHT22;1666;48.898;9.182;2023-02-28T03:48:08;-1.50;1.00
3308;DHT22;1666;48.898;9.182;2023-02-28T03:50:43;-1.50;1.00
3308;DHT22;1666;48.898;9.182;2023-02-28T03:53:20;-1.50;1.00
3308;DHT22;1666;48.898;9.182;2023-02-28T03:55:55;-1.40;1.00
3308;DHT22;1666;48.898;9.182;2023-02-28T03:58:29;-1.40;1.00
3308;DHT22;1666;48.898;9.182;2023-02-28T04:01:03;-1.30;1.00
3308;DHT22;1666;48.898;9.182;2023-02-28T04:03:36;-1.30;1.00
3308;DHT22;1666;48.898;9.182;2023-02-28T04:06:08;-1.30;1.00
3308;DHT22;1666;48.898;9.182;2023-02-28T04:08:45;-1.30;1.00
3308;DHT22;1666;48.898;9.182;2023-02-28T04:11:21;-1.30;1.00
3308;DHT22;1666;48.898;9.182;2023-02-28T04:13:51;-1.30;1.00
3308;DHT22;1666;48.898;9.182;2023-02-28T04:16:21;-1.30;1.00
3308;DHT22;1666;48.898;9.182;2023-02-28T04:19:02;-1.30;1.00
3308;DHT22;1666;48.898;9.182;2023-02-28T04:21:34;-1.20;1.00
3308;DHT22;1666;48.898;9.182;2023-02-28T04:24:07;-1.20;1.00
3308;DHT22;1666;48.898;9.182;2023-02-28T04:26:42;-1.20;1.00
3308;DHT22;1666;48.898;9.182;2023-02-28T04:29:15;-1.20;1.00
3308;DHT22;1666;48.898;9.182;2023-02-28T04:31:47;-1.20;1.00
3308;DHT22;1666;48.898;9.182;2023-02-28T04:34:17;-1.20;1.00
3308;DHT22;1666;48.898;9.182;2023-02-28T04:36:48;-1.20;1.00
3308;DHT22;1666;48.898;9.182;2023-02-28T04:39:41;-1.20;1.00
3308;DHT22;1666;48.898;9.182;2023-02-28T04:42:12;-1.20;1.00
3308;DHT22;1666;48.898;9.182;2023-02-28T04:44:42;-1.20;1.00
3308;DHT22;1666;48.898;9.182;2023-02-28T04:47:11;-1.20;1.00
3308;DHT22;1666;48.898;9.182;2023-02-28T04:49:41;-1.20;1.00
3308;DHT22;1666;48.898;9.182;2023-02-28T04:52:11;-1.20;1.00
3308;DHT22;1666;48.898;9.182;2023-02-28T04:54:43;-1.20;1.00
3308;DHT22;1666;48.898;9.182;2023-02-28T04:57:13;-1.10;1.00
3308;DHT22;1666;48.898;9.182;2023-02-28T04:59:43;-1.10;1.00
3308;DHT22;1666;48.898;9.182;2023-02-28T05:02:13;-1.20;1.00
3308;DHT22;1666;48.898;9.182;2023-02-28T05:04:43;-1.20;1.00
3308;DHT22;1666;48.898;9.182;2023-02-28T05:07:12;-1.20;1.00
3308;DHT22;1666;48.898;9.182;2023-02-28T05:09:45;-1.10;1.00
3308;DHT22;1666;48.898;9.182;2023-02-28T05:12:15;-1.10;1.00
3308;DHT22;1666;48.898;9.182;2023-02-28T05:14:44;-1.10;1.00
3308;DHT22;1666;48.898;9.182;2023-02-28T05:17:14;-1.10;1.00
3308;DHT22;1666;48.898;9.182;2023-02-28T05:19:44;-1.10;1.00
3308;DHT22;1666;48.898;9.182;2023-02-28T05:22:14;-1.20;1.00
3308;DHT22;1666;48.898;9.182;2023-02-28T05:24:48;-1.20;1.00
3308;DHT22;1666;48.898;9.182;2023-02-28T05:27:18;-1.10;1.00
3308;DHT22;1666;48.898;9.182;2023-02-28T05:29:48;-1.10;1.00
3308;DHT22;1666;48.898;9.182;2023-02-28T05:32:17;-1.10;1.00
3308;DHT22;1666;48.898;9.182;2023-02-28T05:34:47;-1.10;1.00
3308;DHT22;1666;48.898;9.182;2023-02-28T05:37:17;-1.10;1.00
3308;DHT22;1666;48.898;9.182;2023-02-28T05:39:51;-1.10;1.00
3308;DHT22;1666;48.898;9.182;2023-02-28T05:42:21;-1.10;1.00
3308;DHT22;1666;48.898;9.182;2023-02-28T05:44:50;-1.10;1.00
3308;DHT22;1666;48.898;9.182;2023-02-28T05:47:20;-1.10;1.00
3308;DHT22;1666;48.898;9.182;2023-02-28T05:49:50;-1.10;1.00
3308;DHT22;1666;48.898;9.182;2023-02-28T05:52:20;-1.10;1.00
3308;DHT22;1666;48.898;9.182;2023-02-28T05:54:52;-1.00;1.00
3308;DHT22;1666;48.898;9.182;2023-02-28T05:57:22;-1.00;1.00
3308;DHT22;1666;48.898;9.182;2023-02-28T05:59:52;-1.00;1.00
3308;DHT22;1666;48.898;9.182;2023-02-28T06:02:22;-1.00;1.00
3308;DHT22;1666;48.898;9.182;2023-02-28T06:04:52;-1.00;1.00
3308;DHT22;1666;48.898;9.182;2023-02-28T06:07:22;-1.00;1.00
3308;DHT22;1666;48.898;9.182;2023-02-28T06:09:54;-1.00;1.00
3308;DHT22;1666;48.898;9.182;2023-02-28T06:12:24;-1.00;1.00
3308;DHT22;1666;48.898;9.182;2023-02-28T06:14:54;-1.00;1.00
3308;DHT22;1666;48.898;9.182;2023-02-28T06:17:24;-1.00;1.00
3308;DHT22;1666;48.898;9.182;2023-02-28T06:19:54;-1.00;1.00
3308;DHT22;1666;48.898;9.182;2023-02-28T06:22:24;-0.90;1.00
3308;DHT22;1666;48.898;9.182;2023-02-28T06:24:56;-1.00;1.00
3308;DHT22;1666;48.898;9.182;2023-02-28T06:27:27;-0.90;1.00
3308;DHT22;1666;48.898;9.182;2023-02-28T06:29:57;-0.90;1.00
3308;DHT22;1666;48.898;9.182;2023-02-28T06:32:26;-0.90;1.00
3308;DHT22;1666;48.898;9.182;2023-02-28T06:34:56;-0.90;1.00
3308;DHT22;1666;48.898;9.182;2023-02-28T06:37:26;-0.90;1.00
3308;DHT22;1666;48.898;9.182;2023-02-28T06:39:58;-0.90;1.00
3308;DHT22;1666;48.898;9.182;2023-02-28T06:42:28;-0.80;1.00
3308;DHT22;1666;48.898;9.182;2023-02-28T06:44:59;-0.80;1.00
3308;DHT22;1666;48.898;9.182;2023-02-28T06:47:36;-0.80;1.00
3308;DHT22;1666;48.898;9.182;2023-02-28T06:50:08;-0.80;1.00
3308;DHT22;1666;48.898;9.182;2023-02-28T06:52:38;-0.80;1.00
3308;DHT22;1666;48.898;9.182;2023-02-28T06:55:11;-0.80;1.00
3308;DHT22;1666;48.898;9.182;2023-02-28T06:57:41;-0.70;1.00
3308;DHT22;1666;48.898;9.182;2023-02-28T07:00:12;-0.70;1.00
3308;DHT22;1666;48.898;9.182;2023-02-28T07:02:42;-0.70;1.00
3308;DHT22;1666;48.898;9.182;2023-02-28T07:05:12;-0.60;1.00
3308;DHT22;1666;48.898;9.182;2023-02-28T07:07:42;-0.70;1.00
3308;DHT22;1666;48.898;9.182;2023-02-28T07:10:16;-0.60;1.00
3308;DHT22;1666;48.898;9.182;2023-02-28T07:12:46;-0.60;1.00
3308;DHT22;1666;48.898;9.182;2023-02-28T07:15:16;-0.60;1.00
3308;DHT22;1666;48.898;9.182;2023-02-28T07:17:46;-0.60;1.00
3308;DHT22;1666;48.898;9.182;2023-02-28T07:20:16;-0.60;1.00
3308;DHT22;1666;48.898;9.182;2023-02-28T07:22:46;-0.60;1.00
3308;DHT22;1666;48.898;9.182;2023-02-28T07:25:26;-0.60;1.00
3308;DHT22;1666;48.898;9.182;2023-02-28T07:27:56;-0.60;1.00
3308;DHT22;1666;48.898;9.182;2023-02-28T07:30:27;-0.60;1.00
3308;DHT22;1666;48.898;9.182;2023-02-28T07:32:56;-0.70;1.00
3308;DHT22;1666;48.898;9.182;2023-02-28T07:35:26;-0.70;1.00
3308;DHT22;1666;48.898;9.182;2023-02-28T07:37:57;-0.60;1.00
3308;DHT22;1666;48.898;9.182;2023-02-28T07:40:30;-0.60;1.00
3308;DHT22;1666;48.898;9.182;2023-02-28T07:43:00;-0.60;1.00
3308;DHT22;1666;48.898;9.182;2023-02-28T07:45:30;-0.70;1.00
3308;DHT22;1666;48.898;9.182;2023-02-28T07:48:02;-0.60;1.00
3308;DHT22;1666;48.898;9.182;2023-02-28T07:50:31;-0.50;1.00
3308;DHT22;1666;48.898;9.182;2023-02-28T07:53:01;-0.60;1.00
3308;DHT22;1666;48.898;9.182;2023-02-28T07:55:34;-0.50;1.00
3308;DHT22;1666;48.898;9.182;2023-02-28T07:58:04;-0.50;1.00
3308;DHT22;1666;48.898;9.182;2023-02-28T08:00:33;-0.40;1.00
3308;DHT22;1666;48.898;9.182;2023-02-28T08:03:03;-0.50;1.00
3308;DHT22;1666;48.898;9.182;2023-02-28T08:05:37;-0.60;1.00
3308;DHT22;1666;48.898;9.182;2023-02-28T08:08:07;-0.50;1.00
3308;DHT22;1666;48.898;9.182;2023-02-28T08:10:40;-0.40;1.00
3308;DHT22;1666;48.898;9.182;2023-02-28T08:13:10;-0.40;1.00
3308;DHT22;1666;48.898;9.182;2023-02-28T08:15:40;-0.40;1.00
3308;DHT22;1666;48.898;9.182;2023-02-28T08:18:12;-0.40;1.00
3308;DHT22;1666;48.898;9.182;2023-02-28T08:20:41;-0.30;1.00
3308;DHT22;1666;48.898;9.182;2023-02-28T08:23:11;-0.40;1.00
3308;DHT22;1666;48.898;9.182;2023-02-28T08:25:43;-0.20;1.00
3308;DHT22;1666;48.898;9.182;2023-02-28T08:28:13;-0.30;1.00
3308;DHT22;1666;48.898;9.182;2023-02-28T08:30:43;-0.20;1.00
3308;DHT22;1666;48.898;9.182;2023-02-28T08:33:13;-0.30;1.00
3308;DHT22;1666;48.898;9.182;2023-02-28T08:35:43;-0.20;1.00
3308;DHT22;1666;48.898;9.182;2023-02-28T08:38:13;-0.10;1.00
3308;DHT22;1666;48.898;9.182;2023-02-28T08:40:45;-0.10;1.00
3308;DHT22;1666;48.898;9.182;2023-02-28T08:43:15;-0.20;1.00
3308;DHT22;1666;48.898;9.182;2023-02-28T08:45:45;-0.10;1.00
3308;DHT22;1666;48.898;9.182;2023-02-28T08:48:14;-0.10;1.00
3308;DHT22;1666;48.898;9.182;2023-02-28T08:50:54;-0.10;1.00
3308;DHT22;1666;48.898;9.182;2023-02-28T08:53:33;0.10;1.00
3308;DHT22;1666;48.898;9.182;2023-02-28T08:56:07;0.10;1.00
3308;DHT22;1666;48.898;9.182;2023-02-28T08:58:38;0.20;1.00
3308;DHT22;1666;48.898;9.182;2023-02-28T09:01:09;0.20;1.00
3308;DHT22;1666;48.898;9.182;2023-02-28T09:03:40;0.20;1.00
3308;DHT22;1666;48.898;9.182;2023-02-28T09:06:11;0.20;1.00
3308;DHT22;1666;48.898;9.182;2023-02-28T09:08:41;0.30;1.00
3308;DHT22;1666;48.898;9.182;2023-02-28T09:11:14;0.50;1.00
3308;DHT22;1666;48.898;9.182;2023-02-28T09:13:44;0.40;1.00
3308;DHT22;1666;48.898;9.182;2023-02-28T09:16:15;0.40;1.00
3308;DHT22;1666;48.898;9.182;2023-02-28T09:18:46;0.30;1.00
3308;DHT22;1666;48.898;9.182;2023-02-28T09:21:18;0.50;1.00
3308;DHT22;1666;48.898;9.182;2023-02-28T09:23:49;0.60;1.00
3308;DHT22;1666;48.898;9.182;2023-02-28T09:26:23;0.60;1.00
3308;DHT22;1666;48.898;9.182;2023-02-28T09:29:05;0.70;1.00
3308;DHT22;1666;48.898;9.182;2023-02-28T09:31:34;0.70;1.00
3308;DHT22;1666;48.898;9.182;2023-02-28T09:34:04;0.80;1.00
3308;DHT22;1666;48.898;9.182;2023-02-28T09:36:35;0.90;1.00
3308;DHT22;1666;48.898;9.182;2023-02-28T09:39:12;1.00;1.00
3308;DHT22;1666;48.898;9.182;2023-02-28T09:41:47;1.10;1.00
3308;DHT22;1666;48.898;9.182;2023-02-28T09:44:22;1.10;1.00
3308;DHT22;1666;48.898;9.182;2023-02-28T09:46:58;1.00;1.00
3308;DHT22;1666;48.898;9.182;2023-02-28T09:49:34;1.10;1.00
3308;DHT22;1666;48.898;9.182;2023-02-28T09:52:10;1.10;1.00
3308;DHT22;1666;48.898;9.182;2023-02-28T09:54:40;1.10;1.00
3308;DHT22;1666;48.898;9.182;2023-02-28T09:57:19;1.30;1.00
3308;DHT22;1666;48.898;9.182;2023-02-28T10:00:02;1.50;1.00
3308;DHT22;1666;48.898;9.182;2023-02-28T10:02:56;1.50;1.00
3308;DHT22;1666;48.898;9.182;2023-02-28T10:05:34;1.40;1.00
3308;DHT22;1666;48.898;9.182;2023-02-28T10:08:13;1.50;1.00
3308;DHT22;1666;48.898;9.182;2023-02-28T10:10:45;1.80;1.00
3308;DHT22;1666;48.898;9.182;2023-02-28T10:13:23;1.70;1.00
3308;DHT22;1666;48.898;9.182;2023-02-28T10:15:58;1.80;1.00
3308;DHT22;1666;48.898;9.182;2023-02-28T10:18:35;1.90;1.00
3308;DHT22;1666;48.898;9.182;2023-02-28T10:21:17;1.90;1.00
3308;DHT22;1666;48.898;9.182;2023-02-28T10:23:49;2.00;1.00
3308;DHT22;1666;48.898;9.182;2023-02-28T10:26:23;2.10;1.00
3308;DHT22;1666;48.898;9.182;2023-02-28T10:28:59;2.00;1.00
3308;DHT22;1666;48.898;9.182;2023-02-28T10:31:29;2.20;1.00
3308;DHT22;1666;48.898;9.182;2023-02-28T10:33:59;2.20;1.00
3308;DHT22;1666;48.898;9.182;2023-02-28T10:36:31;2.40;1.00
3308;DHT22;1666;48.898;9.182;2023-02-28T10:42:21;2.20;1.00
3308;DHT22;1666;48.898;9.182;2023-02-28T10:45:14;2.10;1.00
3308;DHT22;1666;48.898;9.182;2023-02-28T10:47:54;2.10;1.00
3308;DHT22;1666;48.898;9.182;2023-02-28T10:50:33;2.30;1.00
3308;DHT22;1666;48.898;9.182;2023-02-28T10:53:14;2.30;1.00
3308;DHT22;1666;48.898;9.182;2023-02-28T10:55:45;2.50;1.00
3308;DHT22;1666;48.898;9.182;2023-02-28T10:58:27;2.60;1.00
3308;DHT22;1666;48.898;9.182;2023-02-28T11:01:00;2.60;1.00
3308;DHT22;1666;48.898;9.182;2023-02-28T11:03:32;2.60;1.00
3308;DHT22;1666;48.898;9.182;2023-02-28T11:06:07;2.50;1.00
3308;DHT22;1666;48.898;9.182;2023-02-28T11:08:45;2.80;1.00
3308;DHT22;1666;48.898;9.182;2023-02-28T11:11:16;2.90;1.00
3308;DHT22;1666;48.898;9.182;2023-02-28T11:13:47;2.80;1.00
3308;DHT22;1666;48.898;9.182;2023-02-28T11:16:21;2.40;1.00
3308;DHT22;1666;48.898;9.182;2023-02-28T11:18:53;2.50;1.00
3308;DHT22;1666;48.898;9.182;2023-02-28T11:21:26;2.40;1.00
3308;DHT22;1666;48.898;9.182;2023-02-28T11:24:02;2.50;1.00
3308;DHT22;1666;48.898;9.182;2023-02-28T11:26:39;2.60;1.00
3308;DHT22;1666;48.898;9.182;2023-02-28T11:29:18;2.50;1.00
3308;DHT22;1666;48.898;9.182;2023-02-28T11:32:16;2.70;1.00
3308;DHT22;1666;48.898;9.182;2023-02-28T11:34:58;2.80;1.00
3308;DHT22;1666;48.898;9.182;2023-02-28T11:37:31;3.10;1.00
3308;DHT22;1666;48.898;9.182;2023-02-28T11:40:02;3.20;1.00
3308;DHT22;1666;48.898;9.182;2023-02-28T11:42:43;3.40;1.00
3308;DHT22;1666;48.898;9.182;2023-02-28T11:45:22;3.60;1.00
3308;DHT22;1666;48.898;9.182;2023-02-28T11:48:04;3.70;1.00
3308;DHT22;1666;48.898;9.182;2023-02-28T11:50:45;3.70;1.00
3308;DHT22;1666;48.898;9.182;2023-02-28T11:53:23;3.70;1.00
3308;DHT22;1666;48.898;9.182;2023-02-28T11:56:05;3.40;1.00
3308;DHT22;1666;48.898;9.182;2023-02-28T11:58:48;3.20;1.00
3308;DHT22;1666;48.898;9.182;2023-02-28T12:01:32;3.50;1.00
3308;DHT22;1666;48.898;9.182;2023-02-28T12:04:21;3.50;1.00
3308;DHT22;1666;48.898;9.182;2023-02-28T12:06:59;3.60;1.00
3308;DHT22;1666;48.898;9.182;2023-02-28T12:09:38;4.00;1.00
3308;DHT22;1666;48.898;9.182;2023-02-28T12:12:20;4.10;1.00
3308;DHT22;1666;48.898;9.182;2023-02-28T12:18:04;4.40;1.00
3308;DHT22;1666;48.898;9.182;2023-02-28T12:20:44;4.60;1.00
3308;DHT22;1666;48.898;9.182;2023-02-28T12:23:33;4.80;1.00
3308;DHT22;1666;48.898;9.182;2023-02-28T12:26:14;4.40;1.00
3308;DHT22;1666;48.898;9.182;2023-02-28T12:28:51;4.40;1.00
3308;DHT22;1666;48.898;9.182;2023-02-28T12:31:24;4.40;1.00
3308;DHT22;1666;48.898;9.182;2023-02-28T12:34:01;4.50;1.00
3308;DHT22;1666;48.898;9.182;2023-02-28T12:36:35;4.50;1.00
3308;DHT22;1666;48.898;9.182;2023-02-28T12:39:10;4.50;1.00
3308;DHT22;1666;48.898;9.182;2023-02-28T12:41:45;4.50;1.00
3308;DHT22;1666;48.898;9.182;2023-02-28T12:44:16;4.80;1.00
3308;DHT22;1666;48.898;9.182;2023-02-28T12:46:49;5.00;1.00
3308;DHT22;1666;48.898;9.182;2023-02-28T12:49:25;4.90;1.00
3308;DHT22;1666;48.898;9.182;2023-02-28T12:52:02;4.60;1.00
3308;DHT22;1666;48.898;9.182;2023-02-28T12:54:40;4.70;1.00
3308;DHT22;1666;48.898;9.182;2023-02-28T12:57:17;4.80;1.00
3308;DHT22;1666;48.898;9.182;2023-02-28T12:59:51;5.00;1.00
3308;DHT22;1666;48.898;9.182;2023-02-28T13:05:32;5.00;1.00
3308;DHT22;1666;48.898;9.182;2023-02-28T13:08:39;4.90;1.00
3308;DHT22;1666;48.898;9.182;2023-02-28T13:11:25;4.90;1.00
3308;DHT22;1666;48.898;9.182;2023-02-28T13:13:59;5.00;1.00
3308;DHT22;1666;48.898;9.182;2023-02-28T13:16:58;5.00;1.00
3308;DHT22;1666;48.898;9.182;2023-02-28T13:19:30;4.80;1.00
3308;DHT22;1666;48.898;9.182;2023-02-28T13:22:02;4.90;1.00
3308;DHT22;1666;48.898;9.182;2023-02-28T13:24:47;5.00;1.00
3308;DHT22;1666;48.898;9.182;2023-02-28T13:27:34;5.10;1.00
3308;DHT22;1666;48.898;9.182;2023-02-28T13:33:24;5.10;1.00
3308;DHT22;1666;48.898;9.182;2023-02-28T13:36:07;5.10;1.00
3308;DHT22;1666;48.898;9.182;2023-02-28T13:38:39;5.30;1.00
3308;DHT22;1666;48.898;9.182;2023-02-28T13:44:13;5.20;1.00
3308;DHT22;1666;48.898;9.182;2023-02-28T13:49:43;5.20;1.00
3308;DHT22;1666;48.898;9.182;2023-02-28T13:52:17;5.10;1.00
3308;DHT22;1666;48.898;9.182;2023-02-28T13:55:03;5.10;1.00
3308;DHT22;1666;48.898;9.182;2023-02-28T13:57:53;5.30;1.00
3308;DHT22;1666;48.898;9.182;2023-02-28T14:00:40;5.30;1.00
3308;DHT22;1666;48.898;9.182;2023-02-28T14:03:22;5.30;1.00
3308;DHT22;1666;48.898;9.182;2023-02-28T14:06:14;5.30;1.00
3308;DHT22;1666;48.898;9.182;2023-02-28T14:08:54;5.60;1.00
3308;DHT22;1666;48.898;9.182;2023-02-28T14:11:30;5.30;1.00
3308;DHT22;1666;48.898;9.182;2023-02-28T14:14:02;5.30;1.00
3308;DHT22;1666;48.898;9.182;2023-02-28T14:16:40;5.20;1.00
3308;DHT22;1666;48.898;9.182;2023-02-28T14:19:13;5.40;1.00
3308;DHT22;1666;48.898;9.182;2023-02-28T14:21:55;5.50;1.00
3308;DHT22;1666;48.898;9.182;2023-02-28T14:24:59;5.50;1.00
3308;DHT22;1666;48.898;9.182;2023-02-28T14:27:43;5.60;1.00
3308;DHT22;1666;48.898;9.182;2023-02-28T14:30:40;5.50;1.00
3308;DHT22;1666;48.898;9.182;2023-02-28T14:33:35;5.40;1.00
3308;DHT22;1666;48.898;9.182;2023-02-28T14:36:20;5.50;1.00
3308;DHT22;1666;48.898;9.182;2023-02-28T14:38:52;5.40;1.00
3308;DHT22;1666;48.898;9.182;2023-02-28T14:41:28;5.10;1.00
3308;DHT22;1666;48.898;9.182;2023-02-28T14:44:00;5.10;1.00
3308;DHT22;1666;48.898;9.182;2023-02-28T14:46:35;5.20;1.00
3308;DHT22;1666;48.898;9.182;2023-02-28T14:49:15;5.30;1.00
3308;DHT22;1666;48.898;9.182;2023-02-28T14:51:45;5.40;1.00
3308;DHT22;1666;48.898;9.182;2023-02-28T14:54:20;5.40;1.00
3308;DHT22;1666;48.898;9.182;2023-02-28T14:56:52;5.40;1.00
3308;DHT22;1666;48.898;9.182;2023-02-28T14:59:26;5.20;1.00
3308;DHT22;1666;48.898;9.182;2023-02-28T15:02:18;5.20;1.00
3308;DHT22;1666;48.898;9.182;2023-02-28T15:04:59;5.30;1.00
3308;DHT22;1666;48.898;9.182;2023-02-28T15:07:29;5.40;1.00
3308;DHT22;1666;48.898;9.182;2023-02-28T15:10:11;5.40;1.00
3308;DHT22;1666;48.898;9.182;2023-02-28T15:12:41;5.20;1.00
3308;DHT22;1666;48.898;9.182;2023-02-28T15:15:15;5.20;1.00
3308;DHT22;1666;48.898;9.182;2023-02-28T15:17:59;5.20;1.00
3308;DHT22;1666;48.898;9.182;2023-02-28T15:20:33;5.10;1.00
3308;DHT22;1666;48.898;9.182;2023-02-28T15:23:03;5.10;1.00
3308;DHT22;1666;48.898;9.182;2023-02-28T15:25:34;5.10;1.00
3308;DHT22;1666;48.898;9.182;2023-02-28T15:28:04;5.20;1.00
3308;DHT22;1666;48.898;9.182;2023-02-28T15:30:34;5.20;1.00
3308;DHT22;1666;48.898;9.182;2023-02-28T15:33:06;5.10;1.00
3308;DHT22;1666;48.898;9.182;2023-02-28T15:35:40;5.10;1.00
3308;DHT22;1666;48.898;9.182;2023-02-28T15:38:17;5.10;1.00
3308;DHT22;1666;48.898;9.182;2023-02-28T15:40:51;5.10;1.00
3308;DHT22;1666;48.898;9.182;2023-02-28T15:43:25;5.20;1.00
3308;DHT22;1666;48.898;9.182;2023-02-28T15:45:58;5.10;1.00
3308;DHT22;1666;48.898;9.182;2023-02-28T15:48:31;5.00;1.00
3308;DHT22;1666;48.898;9.182;2023-02-28T15:51:08;4.90;1.00
3308;DHT22;1666;48.898;9.182;2023-02-28T15:53:43;4.90;1.00
3308;DHT22;1666;48.898;9.182;2023-02-28T15:56:22;4.80;1.00
3308;DHT22;1666;48.898;9.182;2023-02-28T15:58:54;4.80;1.00
3308;DHT22;1666;48.898;9.182;2023-02-28T16:01:25;4.70;1.00
3308;DHT22;1666;48.898;9.182;2023-02-28T16:04:01;4.70;1.00
3308;DHT22;1666;48.898;9.182;2023-02-28T16:06:37;4.60;1.00
3308;DHT22;1666;48.898;9.182;2023-02-28T16:09:11;4.70;1.00
3308;DHT22;1666;48.898;9.182;2023-02-28T16:11:43;4.60;1.00
3308;DHT22;1666;48.898;9.182;2023-02-28T16:14:17;4.50;1.00
3308;DHT22;1666;48.898;9.182;2023-02-28T16:16:51;4.50;1.00
3308;DHT22;1666;48.898;9.182;2023-02-28T16:19:22;4.40;1.00
3308;DHT22;1666;48.898;9.182;2023-02-28T16:21:54;4.40;1.00
3308;DHT22;1666;48.898;9.182;2023-02-28T16:24:24;4.40;1.00
3308;DHT22;1666;48.898;9.182;2023-02-28T16:26:55;4.40;1.00
3308;DHT22;1666;48.898;9.182;2023-02-28T16:29:28;4.30;1.00
3308;DHT22;1666;48.898;9.182;2023-02-28T16:32:00;4.30;1.00
3308;DHT22;1666;48.898;9.182;2023-02-28T16:34:30;4.20;1.00
3308;DHT22;1666;48.898;9.182;2023-02-28T16:37:04;4.20;1.00
3308;DHT22;1666;48.898;9.182;2023-02-28T16:39:34;4.20;1.00
3308;DHT22;1666;48.898;9.182;2023-02-28T16:42:04;4.10;1.00
3308;DHT22;1666;48.898;9.182;2023-02-28T16:44:35;4.10;1.00
3308;DHT22;1666;48.898;9.182;2023-02-28T16:47:05;4.00;1.00
3308;DHT22;1666;48.898;9.182;2023-02-28T16:49:35;4.00;1.00
3308;DHT22;1666;48.898;9.182;2023-02-28T16:52:08;3.90;1.00
3308;DHT22;1666;48.898;9.182;2023-02-28T16:54:38;3.80;1.00
3308;DHT22;1666;48.898;9.182;2023-02-28T16:57:17;3.80;1.00
3308;DHT22;1666;48.898;9.182;2023-02-28T16:59:48;3.80;1.00
3308;DHT22;1666;48.898;9.182;2023-02-28T17:02:19;3.70;1.00
3308;DHT22;1666;48.898;9.182;2023-02-28T17:04:49;3.60;1.00
3308;DHT22;1666;48.898;9.182;2023-02-28T17:07:22;3.60;1.00
3308;DHT22;1666;48.898;9.182;2023-02-28T17:09:52;3.50;1.00
3308;DHT22;1666;48.898;9.182;2023-02-28T17:12:21;3.40;1.00
3308;DHT22;1666;48.898;9.182;2023-02-28T17:14:51;3.30;1.00
3308;DHT22;1666;48.898;9.182;2023-02-28T17:17:21;3.20;1.00
3308;DHT22;1666;48.898;9.182;2023-02-28T17:19:51;3.20;1.00
3308;DHT22;1666;48.898;9.182;2023-02-28T17:22:24;3.10;1.00
3308;DHT22;1666;48.898;9.182;2023-02-28T17:24:54;3.10;1.00
3308;DHT22;1666;48.898;9.182;2023-02-28T17:27:25;3.10;1.00
3308;DHT22;1666;48.898;9.182;2023-02-28T17:29:55;3.00;1.00
3308;DHT22;1666;48.898;9.182;2023-02-28T17:32:25;3.00;1.00
3308;DHT22;1666;48.898;9.182;2023-02-28T17:35:01;2.90;1.00